Time;durP1;ratioP1;P1;durP2;ratioP2;P2;SDS_P1;SDS_P2;PMS_P1;PMS_P2;Temp;Humidity;BMP_temperature;BMP_pressure;BME280_temperature;BME280_humidity;BME280_pressure;Samples;Min_cycle;Max_cycle;Signal;HPM_P1;HPM_P2
2023/10/15 00:01:05;;;;;;;1.27;0.60;;;;;;;9.09;100.00;101566.94;5015892;28;20028;-79
2023/10/15 00:03:33;;;;;;;1.33;0.70;;;;;;;9.31;100.00;101562.81;5022008;28;20387;-79
2023/10/15 00:05:59;;;;;;;0.90;0.60;;;;;;;9.11;100.00;101566.59;5020022;28;20140;-79
2023/10/15 00:08:24;;;;;;;3.28;0.60;;;;;;;9.34;100.00;101564.13;5018806;28;20033;-81
2023/10/15 00:10:50;;;;;;;1.23;0.60;;;;;;;9.37;100.00;101560.59;5022149;28;20087;-78
2023/10/15 00:13:15;;;;;;;1.20;0.55;;;;;;;9.36;100.00;101553.41;5014613;28;20479;-79
2023/10/15 00:15:42;;;;;;;2.45;1.10;;;;;;;9.25;100.00;101552.25;5026762;28;20029;-79
2023/10/15 00:18:09;;;;;;;2.42;0.88;;;;;;;9.33;100.00;101552.09;5016447;28;20033;-79
2023/10/15 00:20:36;;;;;;;1.90;1.00;;;;;;;9.37;100.00;101549.41;5018105;28;20447;-79
2023/10/15 00:23:05;;;;;;;4.25;0.80;;;;;;;9.25;100.00;101558.63;5021185;28;20343;-79
2023/10/15 00:25:35;;;;;;;3.17;0.68;;;;;;;9.41;100.00;101553.13;5014582;28;20033;-79
2023/10/15 00:28:02;;;;;;;3.45;0.70;;;;;;;9.26;100.00;101553.88;5024391;28;20029;-79
2023/10/15 00:30:34;;;;;;;1.98;0.80;;;;;;;9.31;100.00;101565.59;5027804;28;20041;-79
2023/10/15 00:33:06;;;;;;;1.13;0.63;;;;;;;9.27;100.00;101555.50;5017629;28;20487;-79
2023/10/15 00:35:35;;;;;;;2.00;0.95;;;;;;;9.38;100.00;101578.97;5027004;28;20546;-80
2023/10/15 00:38:07;;;;;;;1.58;0.50;;;;;;;9.47;100.00;101604.81;5025057;28;20041;-79
2023/10/15 00:40:37;;;;;;;2.30;0.85;;;;;;;9.42;100.00;101619.00;5021817;28;20518;-80
2023/10/15 00:43:03;;;;;;;1.15;0.60;;;;;;;8.97;100.00;101620.00;5023811;28;20037;-79
2023/10/15 00:45:35;;;;;;;1.13;0.57;;;;;;;8.97;100.00;101596.84;5021674;28;20022;-79
2023/10/15 00:48:02;;;;;;;0.98;0.47;;;;;;;9.15;100.00;101599.06;5024004;28;20417;-79
2023/10/15 00:50:43;;;;;;;0.40;0.35;;;;;;;9.26;100.00;101565.06;5039550;28;20032;-79
2023/10/15 00:53:25;;;;;;;1.13;0.65;;;;;;;9.40;100.00;101545.09;5021796;28;20394;-78
2023/10/15 00:55:54;;;;;;;1.75;0.47;;;;;;;9.26;100.00;101537.13;5040081;28;20403;-79
2023/10/15 00:58:35;;;;;;;2.40;0.50;;;;;;;9.31;100.00;101534.06;5034984;28;20025;-79
2023/10/15 01:01:20;;;;;;;1.58;0.73;;;;;;;9.35;100.00;101543.38;5038662;28;20029;-79
2023/10/15 01:03:48;;;;;;;0.30;0.30;;;;;;;9.31;100.00;101548.84;5038618;28;20068;-79
2023/10/15 01:06:30;;;;;;;0.93;0.30;;;;;;;9.28;100.00;101537.59;5024768;28;20119;-79
2023/10/15 01:09:10;;;;;;;1.27;0.25;;;;;;;9.25;100.00;101529.88;5019464;28;20025;-79
2023/10/15 01:11:44;;;;;;;0.60;0.40;;;;;;;9.29;100.00;101530.81;5038927;28;20028;-79
2023/10/15 01:14:13;;;;;;;0.63;0.40;;;;;;;9.35;100.00;101533.00;5023830;28;20562;-79
2023/10/15 01:16:40;;;;;;;2.67;0.40;;;;;;;9.27;100.00;101516.38;5021734;28;20029;-79
2023/10/15 01:19:16;;;;;;;1.20;0.60;;;;;;;9.18;100.00;101521.31;5019807;28;20053;-79
2023/10/15 01:21:57;;;;;;;0.28;0.28;;;;;;;9.12;100.00;101521.53;5042346;28;20036;-79
2023/10/15 01:24:25;;;;;;;1.13;0.50;;;;;;;9.31;100.00;101520.91;5036460;28;20033;-80
2023/10/15 01:27:04;;;;;;;1.58;0.55;;;;;;;9.25;100.00;101525.09;5015987;28;20072;-79
2023/10/15 01:29:33;;;;;;;0.77;0.65;;;;;;;9.26;100.00;101526.75;5033257;28;20107;-79
2023/10/15 01:32:13;;;;;;;0.60;0.40;;;;;;;9.20;100.00;101539.34;5040901;28;20028;-80
2023/10/15 01:34:45;;;;;;;1.63;0.50;;;;;;;9.23;100.00;101540.59;5042690;28;20152;-79
2023/10/15 01:39:52;;;;;;;1.55;0.32;;;;;;;8.91;100.00;101560.78;5042177;28;20485;-79
2023/10/15 01:45:13;;;;;;;2.60;0.68;;;;;;;9.22;100.00;101569.72;5041690;28;20033;-79
2023/10/15 01:50:23;;;;;;;1.88;0.60;;;;;;;9.41;100.00;101563.50;5041221;28;20040;-79
2023/10/15 01:52:55;;;;;;;2.42;0.70;;;;;;;9.42;100.00;101579.09;5019644;28;20030;-80
2023/10/15 01:55:21;;;;;;;0.60;0.40;;;;;;;9.42;100.00;101568.72;5023338;28;20483;-79
2023/10/15 01:57:46;;;;;;;2.97;0.77;;;;;;;9.35;100.00;101568.53;5036100;28;20036;-79
2023/10/15 02:00:13;;;;;;;0.50;0.40;;;;;;;9.41;100.00;101558.72;5033783;28;20032;-79
2023/10/15 02:02:41;;;;;;;3.15;0.70;;;;;;;9.47;100.00;101551.72;5037835;28;20371;-79
2023/10/15 02:05:16;;;;;;;3.58;0.88;;;;;;;9.38;100.00;101551.03;5033757;28;20037;-79
2023/10/15 02:07:42;;;;;;;1.25;0.50;;;;;;;9.36;100.00;101570.16;5014255;28;20029;-80
2023/10/15 02:10:12;;;;;;;1.13;0.60;;;;;;;9.38;100.00;101589.34;5042699;28;20106;-79
2023/10/15 02:12:37;;;;;;;1.95;0.50;;;;;;;9.20;100.00;101598.00;5020715;28;20030;-79
2023/10/15 02:15:08;;;;;;;1.20;0.50;;;;;;;9.04;100.00;101597.88;5022422;28;20056;-79
2023/10/15 02:17:34;;;;;;;4.28;0.95;;;;;;;9.09;100.00;101600.44;5035682;28;20459;-79
2023/10/15 02:20:06;;;;;;;1.67;0.38;;;;;;;9.27;100.00;101600.19;5042673;28;20112;-79
2023/10/15 02:22:38;;;;;;;1.92;0.45;;;;;;;9.13;100.00;101581.81;5021377;28;20053;-80
2023/10/15 02:25:06;;;;;;;1.65;0.55;;;;;;;9.29;100.00;101569.94;5045269;28;20024;-80
2023/10/15 02:27:35;;;;;;;1.00;0.50;;;;;;;9.28;100.00;101557.13;5040574;28;20671;-79
2023/10/15 02:30:01;;;;;;;3.10;0.82;;;;;;;9.14;100.00;101558.31;5025936;28;20033;-80
2023/10/15 02:34:53;;;;;;;1.20;0.63;;;;;;;9.32;100.00;101558.06;5040877;28;20035;-79
2023/10/15 02:37:19;;;;;;;1.67;0.60;;;;;;;9.16;100.00;101553.19;5043575;28;20119;-81
2023/10/15 02:39:50;;;;;;;1.23;0.60;;;;;;;9.15;100.00;101554.38;5040610;28;20483;-80
2023/10/15 02:42:18;;;;;;;3.58;0.95;;;;;;;9.19;100.00;101550.84;5039019;28;20095;-79
2023/10/15 02:44:45;;;;;;;2.22;0.70;;;;;;;9.27;100.00;101549.91;5035857;28;20481;-80
2023/10/15 02:47:19;;;;;;;1.50;0.52;;;;;;;9.36;100.00;101550.59;5047757;28;20033;-79
2023/10/15 02:49:53;;;;;;;1.73;0.60;;;;;;;9.31;100.00;101543.25;5038356;28;20049;-80
2023/10/15 02:52:23;;;;;;;2.20;0.45;;;;;;;9.33;100.00;101543.72;5022942;28;20484;-80
2023/10/15 02:54:49;;;;;;;1.35;0.43;;;;;;;9.18;100.00;101543.66;5045192;28;20028;-79
2023/10/15 02:57:15;;;;;;;1.45;1.10;;;;;;;9.11;100.00;101541.47;5026485;28;20090;-80
2023/10/15 02:59:51;;;;;;;3.40;0.65;;;;;;;9.16;100.00;101533.63;5027998;28;20022;-82
2023/10/15 03:02:20;;;;;;;1.95;1.02;;;;;;;9.04;100.00;101536.44;5027334;28;20029;-81
2023/10/15 03:04:51;;;;;;;2.40;0.80;;;;;;;9.15;100.00;101537.59;5025924;28;20036;-81
2023/10/15 03:07:26;;;;;;;1.83;0.60;;;;;;;8.85;100.00;101539.03;5030139;28;20051;-81
2023/10/15 03:09:56;;;;;;;3.28;0.63;;;;;;;9.05;100.00;101537.28;5037563;28;20127;-81
2023/10/15 03:12:22;;;;;;;3.85;0.65;;;;;;;9.22;100.00;101547.38;5043889;28;20544;-80
2023/10/15 03:14:48;;;;;;;2.70;0.77;;;;;;;9.28;100.00;101548.75;5040006;28;20496;-80
2023/10/15 03:17:24;;;;;;;0.88;0.50;;;;;;;9.22;100.00;101541.78;5046917;28;20036;-80
2023/10/15 03:19:56;;;;;;;1.25;0.63;;;;;;;8.97;100.00;101539.03;5035904;28;20034;-80
2023/10/15 03:22:25;;;;;;;0.60;0.50;;;;;;;9.14;100.00;101535.97;5021298;28;20029;-79
2023/10/15 03:24:53;;;;;;;4.53;1.00;;;;;;;9.10;100.00;101526.66;5043349;28;20639;-80
2023/10/15 03:27:22;;;;;;;1.42;0.70;;;;;;;9.21;100.00;101540.13;5023558;28;20060;-80
2023/10/15 03:29:47;;;;;;;2.85;1.15;;;;;;;9.27;100.00;101549.91;5029600;28;20035;-80
2023/10/15 03:32:13;;;;;;;1.85;0.75;;;;;;;9.27;100.00;101547.13;5046270;28;20416;-80
2023/10/15 03:34:48;;;;;;;1.20;0.75;;;;;;;9.20;100.00;101532.94;5025695;28;20033;-80
2023/10/15 03:37:16;;;;;;;2.92;0.88;;;;;;;9.13;100.00;101537.16;5037264;28;20033;-80
2023/10/15 03:42:17;;;;;;;1.63;0.57;;;;;;;9.13;100.00;101534.34;5039787;28;20112;-79
2023/10/15 03:44:44;;;;;;;2.17;0.95;;;;;;;8.98;100.00;101554.63;5039448;28;20029;-80
2023/10/15 03:47:13;;;;;;;1.27;0.60;;;;;;;9.10;100.00;101562.97;5028373;28;20371;-80
2023/10/15 03:49:39;;;;;;;4.20;1.20;;;;;;;9.24;100.00;101567.38;5041520;28;20397;-79
2023/10/15 03:52:08;;;;;;;1.50;0.60;;;;;;;9.21;100.00;101576.47;5036415;28;20037;-80
2023/10/15 03:54:37;;;;;;;3.08;1.10;;;;;;;9.15;100.00;101585.09;5035096;28;20057;-79
2023/10/15 03:57:06;;;;;;;2.13;0.82;;;;;;;9.22;100.00;101598.47;5034484;28;20383;-80
2023/10/15 03:59:36;;;;;;;3.83;0.90;;;;;;;9.30;100.00;101593.91;5023959;28;20033;-79
2023/10/15 04:02:02;;;;;;;3.13;1.52;;;;;;;9.14;100.00;101585.44;5027101;28;20150;-79
2023/10/15 04:04:28;;;;;;;2.28;0.95;;;;;;;9.14;100.00;101588.22;5037931;28;20048;-79
2023/10/15 04:07:10;;;;;;;2.35;0.88;;;;;;;9.14;100.00;101575.06;5042310;28;20467;-79
2023/10/15 04:09:38;;;;;;;1.23;0.57;;;;;;;8.86;100.00;101557.41;5041172;28;20091;-79
2023/10/15 04:12:06;;;;;;;3.83;1.25;;;;;;;8.87;100.00;101570.19;5029100;28;20270;-79
2023/10/15 04:14:32;;;;;;;1.90;1.10;;;;;;;8.64;100.00;101567.88;5042602;28;20061;-80
2023/10/15 04:16:58;;;;;;;2.50;0.68;;;;;;;8.92;100.00;101578.38;5041979;28;20029;-79
2023/10/15 04:19:26;;;;;;;4.88;1.77;;;;;;;8.86;100.00;101590.94;5036220;28;20022;-79
2023/10/15 04:21:52;;;;;;;2.30;0.77;;;;;;;8.53;100.00;101589.84;5045506;28;20028;-81
2023/10/15 04:24:28;;;;;;;1.40;0.85;;;;;;;8.96;100.00;101573.72;5041915;28;20029;-80
2023/10/15 04:26:56;;;;;;;1.38;0.90;;;;;;;8.79;100.00;101587.88;5023667;28;20060;-79
2023/10/15 04:29:21;;;;;;;3.65;0.80;;;;;;;8.88;100.00;101574.63;5016953;28;20061;-80
2023/10/15 04:32:00;;;;;;;0.90;0.60;;;;;;;9.00;100.00;101580.19;5036960;28;20087;-80
2023/10/15 04:34:31;;;;;;;1.13;0.63;;;;;;;9.01;100.00;101576.25;5034467;28;20040;-80
2023/10/15 04:37:07;;;;;;;4.95;0.90;;;;;;;9.04;100.00;101586.72;5036739;28;20098;-80
2023/10/15 04:39:32;;;;;;;1.33;0.98;;;;;;;9.13;100.00;101579.03;5027227;28;20036;-79
2023/10/15 04:41:57;;;;;;;3.20;0.60;;;;;;;9.13;100.00;101581.03;5025130;28;20033;-80
2023/10/15 04:44:31;;;;;;;3.08;0.70;;;;;;;9.11;100.00;101581.38;5043850;28;20035;-80
2023/10/15 04:47:04;;;;;;;3.85;1.35;;;;;;;9.06;100.00;101584.38;5043744;28;20131;-81
2023/10/15 04:49:33;;;;;;;0.47;0.40;;;;;;;9.02;100.00;101583.44;5037788;28;20048;-80
2023/10/15 04:51:59;;;;;;;4.30;0.75;;;;;;;8.96;100.00;101590.47;5024518;28;20494;-80
2023/10/15 04:54:25;;;;;;;1.75;0.43;;;;;;;8.87;100.00;101598.94;5037518;28;20052;-80
2023/10/15 04:56:54;;;;;;;0.82;0.50;;;;;;;9.03;100.00;101601.84;5039073;28;20538;-80
2023/10/15 04:59:20;;;;;;;1.60;0.55;;;;;;;8.74;100.00;101600.91;5044354;28;20037;-80
2023/10/15 05:01:48;;;;;;;0.63;0.40;;;;;;;8.83;100.00;101603.56;5043100;28;20044;-80
2023/10/15 05:04:13;;;;;;;3.60;0.57;;;;;;;8.93;100.00;101602.31;5040042;28;20509;-80
2023/10/15 05:06:39;;;;;;;2.40;0.63;;;;;;;8.87;100.00;101610.09;5021693;28;20025;-80
2023/10/15 05:09:09;;;;;;;1.45;0.35;;;;;;;8.90;100.00;101608.59;5023512;28;20578;-80
2023/10/15 05:11:34;;;;;;;1.30;0.45;;;;;;;8.85;100.00;101604.03;5017407;28;20022;-80
2023/10/15 05:14:00;;;;;;;1.35;0.60;;;;;;;8.84;100.00;101612.78;5042279;28;20032;-80
2023/10/15 05:16:25;;;;;;;1.23;0.50;;;;;;;8.85;100.00;101609.63;5039757;28;20040;-80
2023/10/15 05:18:50;;;;;;;4.78;0.70;;;;;;;8.94;100.00;101621.50;5021456;28;20025;-80
2023/10/15 05:21:16;;;;;;;0.80;0.50;;;;;;;8.92;100.00;101611.88;5020732;28;20080;-80
2023/10/15 05:23:41;;;;;;;1.60;0.73;;;;;;;8.82;100.00;101617.91;5043368;28;20025;-80
2023/10/15 05:26:06;;;;;;;1.35;0.30;;;;;;;8.93;100.00;101610.69;5025693;28;20029;-80
2023/10/15 05:28:32;;;;;;;3.10;0.60;;;;;;;8.95;100.00;101608.34;5041716;28;20033;-80
2023/10/15 05:30:58;;;;;;;4.43;0.70;;;;;;;8.86;100.00;101607.69;5035945;28;20029;-80
2023/10/15 05:33:23;;;;;;;1.23;0.60;;;;;;;8.89;100.00;101606.97;5023881;28;20048;-80
2023/10/15 05:35:52;;;;;;;2.38;0.55;;;;;;;8.92;100.00;101611.88;5041277;28;20033;-80
2023/10/15 05:38:17;;;;;;;1.65;0.70;;;;;;;8.91;100.00;101610.22;5033534;28;20036;-79
2023/10/15 05:40:44;;;;;;;7.82;1.27;;;;;;;8.82;100.00;101610.34;5016688;28;20037;-80
2023/10/15 05:43:10;;;;;;;3.95;0.80;;;;;;;8.79;100.00;101615.78;5025727;28;20437;-79
2023/10/15 05:45:35;;;;;;;5.18;0.80;;;;;;;8.75;100.00;101613.72;5041791;28;20029;-80
2023/10/15 05:48:01;;;;;;;3.38;0.70;;;;;;;8.84;100.00;101610.81;5037442;28;20017;-81
2023/10/15 05:50:26;;;;;;;8.38;0.80;;;;;;;8.91;100.00;101615.81;5042069;28;20049;-80
2023/10/15 05:52:51;;;;;;;2.05;0.90;;;;;;;8.97;100.00;101608.81;5042258;28;20036;-80
2023/10/15 05:55:19;;;;;;;0.95;0.55;;;;;;;8.99;100.00;101609.28;5028139;28;20492;-80
2023/10/15 05:57:46;;;;;;;5.22;1.75;;;;;;;8.97;100.00;101614.41;5030730;28;20029;-80
2023/10/15 06:00:18;;;;;;;1.33;0.75;;;;;;;8.94;100.00;101617.91;5027434;28;20070;-80
2023/10/15 06:02:47;;;;;;;2.03;0.52;;;;;;;8.92;100.00;101623.84;5032152;28;20036;-80
2023/10/15 06:05:13;;;;;;;3.05;0.70;;;;;;;8.96;100.00;101623.97;5021694;28;20455;-80
2023/10/15 06:07:40;;;;;;;1.98;0.82;;;;;;;8.95;100.00;101623.13;5021594;28;20513;-79
2023/10/15 06:10:11;;;;;;;3.92;0.85;;;;;;;8.94;100.00;101627.09;5041725;28;20120;-80
2023/10/15 06:12:38;;;;;;;5.22;1.38;;;;;;;8.93;100.00;101641.41;5045943;28;20378;-80
2023/10/15 06:15:04;;;;;;;4.20;1.10;;;;;;;8.89;100.00;101641.28;5039562;28;20437;-80
2023/10/15 06:17:29;;;;;;;1.63;0.80;;;;;;;8.95;100.00;101655.81;5024251;28;20025;-80
2023/10/15 06:19:55;;;;;;;1.35;0.60;;;;;;;8.68;100.00;101657.31;5041023;28;20047;-80
2023/10/15 06:22:20;;;;;;;2.38;0.65;;;;;;;8.90;100.00;101664.44;5028134;28;20057;-79
2023/10/15 06:24:46;;;;;;;2.88;0.77;;;;;;;8.90;100.00;101681.19;5024082;28;20079;-80
2023/10/15 06:27:15;;;;;;;3.42;0.85;;;;;;;8.88;100.00;101687.13;5024477;28;20035;-80
2023/10/15 06:29:41;;;;;;;0.98;0.40;;;;;;;8.78;100.00;101683.97;5023101;28;20088;-80
2023/10/15 06:32:06;;;;;;;1.55;0.57;;;;;;;8.69;100.00;101684.88;5038306;28;20041;-80
2023/10/15 06:34:32;;;;;;;2.03;0.80;;;;;;;8.40;100.00;101688.59;5027191;28;20043;-80
2023/10/15 06:36:58;;;;;;;4.40;0.63;;;;;;;8.31;100.00;101710.19;5024058;28;20033;-80
2023/10/15 06:39:23;;;;;;;3.35;0.50;;;;;;;8.60;100.00;101697.28;5041461;28;20036;-79
2023/10/15 06:41:48;;;;;;;2.10;1.27;;;;;;;8.63;100.00;101694.63;5046860;28;20059;-79
2023/10/15 06:44:16;;;;;;;4.38;1.15;;;;;;;8.45;100.00;101690.38;5045653;28;20056;-80
2023/10/15 06:46:41;;;;;;;1.65;0.98;;;;;;;8.48;100.00;101692.50;5039174;28;20665;-82
2023/10/15 06:49:07;;;;;;;2.20;0.75;;;;;;;8.57;100.00;101703.56;5038363;28;20204;-81
2023/10/15 06:51:33;;;;;;;3.50;0.80;;;;;;;8.65;100.00;101705.44;5040361;28;20521;-81
2023/10/15 06:53:59;;;;;;;1.65;0.65;;;;;;;8.78;100.00;101706.28;5043887;28;20037;-81
2023/10/15 06:56:25;;;;;;;2.65;0.55;;;;;;;8.79;100.00;101700.38;5037641;28;20083;-82
2023/10/15 06:58:50;;;;;;;1.48;0.60;;;;;;;8.83;100.00;101708.84;5028166;28;20072;-80
2023/10/15 07:01:16;;;;;;;1.45;0.60;;;;;;;8.90;100.00;101709.13;5023212;28;20033;-80
2023/10/15 07:03:41;;;;;;;1.75;0.73;;;;;;;8.88;100.00;101711.44;5025979;28;20032;-81
2023/10/15 07:06:08;;;;;;;2.95;0.60;;;;;;;8.88;100.00;101717.84;5040466;28;20029;-81
2023/10/15 07:08:34;;;;;;;1.85;0.75;;;;;;;8.95;100.00;101714.47;5029602;28;20103;-80
2023/10/15 07:10:59;;;;;;;1.27;0.60;;;;;;;8.97;100.00;101720.53;5019324;28;20029;-80
2023/10/15 07:13:25;;;;;;;0.77;0.40;;;;;;;8.91;100.00;101721.91;5024002;28;20033;-80
2023/10/15 07:15:50;;;;;;;2.22;0.90;;;;;;;8.99;100.00;101726.56;5041248;28;20449;-81
2023/10/15 07:18:16;;;;;;;3.75;0.80;;;;;;;9.10;100.00;101730.53;5040304;28;20029;-80
2023/10/15 07:20:41;;;;;;;3.03;0.70;;;;;;;9.05;100.00;101722.41;5019496;28;20029;-80
2023/10/15 07:23:07;;;;;;;1.42;0.85;;;;;;;9.12;100.00;101733.00;5043561;28;20028;-80
2023/10/15 07:25:33;;;;;;;0.82;0.50;;;;;;;9.08;100.00;101737.63;5039452;28;20079;-80
2023/10/15 07:28:00;;;;;;;1.90;0.60;;;;;;;8.91;100.00;101750.63;5027395;28;20063;-80
2023/10/15 07:30:26;;;;;;;3.88;0.60;;;;;;;8.91;100.00;101735.88;5025459;28;20540;-80
2023/10/15 07:32:58;;;;;;;2.90;1.02;;;;;;;8.93;100.00;101737.16;5029766;28;20488;-80
2023/10/15 07:35:25;;;;;;;0.80;0.40;;;;;;;8.99;100.00;101731.34;5032155;28;20036;-80
2023/10/15 07:37:52;;;;;;;1.23;0.40;;;;;;;9.02;100.00;101737.03;5023635;28;20501;-80
2023/10/15 07:40:25;;;;;;;4.25;0.50;;;;;;;8.95;100.00;101750.75;5018796;28;20032;-80
2023/10/15 07:42:53;;;;;;;3.95;0.63;;;;;;;8.39;100.00;101756.72;5026213;28;20477;-80
2023/10/15 07:45:20;;;;;;;0.52;0.40;;;;;;;8.82;100.00;101763.06;5026042;28;20506;-82
2023/10/15 07:47:46;;;;;;;0.52;0.50;;;;;;;8.88;100.00;101761.69;5041447;28;20027;-83
2023/10/15 07:50:16;;;;;;;1.25;0.80;;;;;;;9.00;100.00;101764.50;5044999;28;20112;-83
2023/10/15 07:52:42;;;;;;;1.88;0.65;;;;;;;9.02;100.00;101762.16;5038343;28;20970;-83
2023/10/15 07:55:10;;;;;;;0.95;0.47;;;;;;;9.05;100.00;101755.91;5036054;28;20123;-83
2023/10/15 07:57:37;;;;;;;0.93;0.50;;;;;;;9.04;100.00;101762.66;5045788;28;20623;-83
2023/10/15 08:00:07;;;;;;;2.60;0.80;;;;;;;8.99;100.00;101768.47;5038158;28;20359;-83
2023/10/15 08:02:35;;;;;;;4.82;1.48;;;;;;;9.03;100.00;101776.97;5022393;28;20032;-83
2023/10/15 08:05:00;;;;;;;0.40;0.40;;;;;;;9.10;100.00;101775.22;5025905;28;20589;-83
2023/10/15 08:07:27;;;;;;;2.13;0.73;;;;;;;9.20;100.00;101785.16;5040198;28;20033;-83
2023/10/15 08:09:52;;;;;;;1.30;0.50;;;;;;;9.17;100.00;101785.84;5029414;28;20037;-83
2023/10/15 08:12:17;;;;;;;0.90;0.40;;;;;;;9.20;100.00;101784.34;5037809;28;20052;-82
2023/10/15 08:14:44;;;;;;;1.48;0.98;;;;;;;9.12;100.00;101795.25;5023558;28;20035;-83
2023/10/15 08:17:11;;;;;;;1.45;0.63;;;;;;;9.15;100.00;101804.94;5030423;28;20111;-82
2023/10/15 08:19:37;;;;;;;2.55;0.68;;;;;;;9.23;100.00;101814.38;5020967;28;20033;-82
2023/10/15 08:22:02;;;;;;;1.55;0.60;;;;;;;9.09;100.00;101828.66;5035333;28;20039;-83
2023/10/15 08:24:27;;;;;;;1.58;0.70;;;;;;;9.04;100.00;101817.69;5017739;28;20095;-82
2023/10/15 08:26:53;;;;;;;1.00;0.47;;;;;;;8.96;100.00;101813.84;5029189;28;20032;-83
2023/10/15 08:29:19;;;;;;;0.38;0.32;;;;;;;8.92;100.00;101818.47;5018262;28;20013;-83
2023/10/15 08:31:48;;;;;;;2.35;0.65;;;;;;;8.88;100.00;101811.94;5021794;28;20087;-82
2023/10/15 08:34:14;;;;;;;0.73;0.70;;;;;;;8.82;100.00;101813.31;5036582;28;20440;-82
2023/10/15 08:36:39;;;;;;;4.05;0.85;;;;;;;9.00;100.00;101809.19;5031833;28;20113;-83
2023/10/15 08:39:06;;;;;;;1.10;0.50;;;;;;;9.02;100.00;101806.84;5031353;28;20478;-84
2023/10/15 08:41:38;;;;;;;3.17;0.60;;;;;;;8.99;100.00;101813.13;5021719;28;20047;-83
2023/10/15 08:44:10;;;;;;;3.40;0.55;;;;;;;8.93;100.00;101808.94;5020577;28;20033;-83
2023/10/15 08:46:39;;;;;;;3.90;0.88;;;;;;;9.00;100.00;101811.16;5035803;28;20071;-82
2023/10/15 08:49:08;;;;;;;2.50;1.20;;;;;;;9.02;100.00;101823.59;5035259;28;20526;-82
2023/10/15 08:51:34;;;;;;;3.55;0.60;;;;;;;9.05;100.00;101822.94;5023238;28;20035;-83
2023/10/15 08:54:02;;;;;;;3.25;0.65;;;;;;;9.08;100.00;101829.81;5039283;28;20028;-82
2023/10/15 08:56:30;;;;;;;2.92;0.52;;;;;;;9.03;100.00;101830.84;5039845;28;20040;-83
2023/10/15 08:58:56;;;;;;;1.70;0.63;;;;;;;9.06;100.00;101830.13;5023624;28;20382;-82
2023/10/15 09:01:23;;;;;;;1.50;0.68;;;;;;;9.05;100.00;101828.53;5031512;28;20637;-82
2023/10/15 09:03:49;;;;;;;1.92;0.68;;;;;;;9.16;100.00;101840.88;5037327;28;20143;-83
2023/10/15 09:06:16;;;;;;;0.40;0.40;;;;;;;9.16;100.00;101840.88;5036773;28;20473;-83
2023/10/15 09:08:42;;;;;;;1.52;0.65;;;;;;;9.22;100.00;101849.06;5024197;28;20130;-83
2023/10/15 09:11:08;;;;;;;2.53;0.80;;;;;;;9.20;100.00;101846.59;5023973;28;20025;-83
2023/10/15 09:13:36;;;;;;;1.52;0.40;;;;;;;9.20;100.00;101851.38;5021788;28;20133;-83
2023/10/15 09:16:03;;;;;;;0.70;0.45;;;;;;;9.42;100.00;101864.91;5016711;28;20036;-82
2023/10/15 09:18:31;;;;;;;2.38;0.50;;;;;;;9.54;100.00;101873.34;5019696;28;20127;-83
2023/10/15 09:20:59;;;;;;;2.95;0.77;;;;;;;9.40;100.00;101878.41;5024607;28;20025;-83
2023/10/15 09:23:24;;;;;;;1.35;0.80;;;;;;;9.12;100.00;101879.03;5040369;28;20037;-83
2023/10/15 09:25:55;;;;;;;1.63;0.65;;;;;;;9.02;100.00;101873.88;5040801;28;20032;-83
2023/10/15 09:28:22;;;;;;;1.27;0.68;;;;;;;9.03;100.00;101883.09;5040206;28;20104;-82
2023/10/15 09:30:48;;;;;;;2.05;0.50;;;;;;;9.24;100.00;101877.47;5023906;28;20033;-83
2023/10/15 09:33:16;;;;;;;0.73;0.47;;;;;;;9.26;100.00;101873.16;5037160;28;20032;-83
2023/10/15 09:35:42;;;;;;;1.90;0.43;;;;;;;9.16;100.00;101881.97;5048874;28;20120;-82
2023/10/15 09:38:13;;;;;;;3.75;1.02;;;;;;;8.84;100.00;101889.19;5039305;28;20140;-83
2023/10/15 09:40:39;;;;;;;2.63;0.70;;;;;;;9.13;100.00;101879.88;5041768;28;20036;-83
2023/10/15 09:43:05;;;;;;;1.30;0.70;;;;;;;9.25;100.00;101887.47;5025954;28;20039;-83
2023/10/15 09:45:31;;;;;;;0.50;0.50;;;;;;;9.29;100.00;101888.41;5022271;28;20037;-83
2023/10/15 09:47:59;;;;;;;0.95;0.52;;;;;;;9.20;100.00;101901.66;5026038;28;20210;-83
2023/10/15 09:50:27;;;;;;;7.72;1.85;;;;;;;9.08;100.00;101899.63;5022522;28;20025;-82
2023/10/15 09:52:57;;;;;;;6.13;0.80;;;;;;;9.19;100.00;101903.63;5023633;28;20048;-83
2023/10/15 09:55:23;;;;;;;3.05;0.68;;;;;;;9.41;100.00;101896.03;5017601;28;20067;-83
2023/10/15 09:57:54;;;;;;;1.35;1.15;;;;;;;9.20;100.00;101899.69;5037203;28;20033;-84
2023/10/15 10:00:25;;;;;;;2.65;0.88;;;;;;;9.30;100.00;101901.25;5022636;28;20483;-82
2023/10/15 10:03:10;;;;;;;3.78;0.93;;;;;;;9.25;100.00;101895.84;5022162;28;20029;-83
2023/10/15 10:05:45;;;;;;;2.90;1.08;;;;;;;9.33;100.00;101904.13;5044961;28;20032;-83
2023/10/15 10:08:37;;;;;;;2.60;0.70;;;;;;;9.40;100.00;101902.75;5039359;28;20112;-83
2023/10/15 10:11:09;;;;;;;2.38;0.85;;;;;;;9.48;100.00;101899.88;5041722;28;20068;-83
2023/10/15 10:13:49;;;;;;;3.63;0.73;;;;;;;9.42;100.00;101906.84;5025628;28;20090;-83
2023/10/15 10:16:24;;;;;;;7.22;0.82;;;;;;;9.35;100.00;101912.19;5041969;28;20525;-83
2023/10/15 10:18:49;;;;;;;1.73;0.60;;;;;;;9.56;100.00;101907.34;5041631;28;20025;-83
2023/10/15 10:21:16;;;;;;;2.22;0.85;;;;;;;9.44;100.00;101915.69;5024017;28;20071;-83
2023/10/15 10:23:43;;;;;;;5.85;0.70;;;;;;;9.38;100.00;101919.88;5039805;28;20070;-83
2023/10/15 10:26:12;;;;;;;2.25;0.73;;;;;;;9.65;100.00;101920.41;5039274;28;20033;-83
2023/10/15 10:28:39;;;;;;;8.63;1.00;;;;;;;9.62;100.00;101907.16;5026995;28;20032;-83
2023/10/15 10:31:07;;;;;;;1.55;0.73;;;;;;;9.59;100.00;101927.38;5032614;28;20029;-82
2023/10/15 10:33:42;;;;;;;2.53;0.75;;;;;;;9.63;100.00;101928.31;5040354;28;20043;-83
2023/10/15 10:36:31;;;;;;;2.53;0.85;;;;;;;9.65;100.00;101924.03;5041416;28;20060;-83
2023/10/15 10:39:07;;;;;;;2.95;0.73;;;;;;;9.73;100.00;101936.28;5028428;28;20605;-83
2023/10/15 10:42:05;;;;;;;2.65;1.50;;;;;;;9.79;100.00;101936.88;5015708;28;20041;-84
2023/10/15 10:44:30;;;;;;;2.25;1.50;;;;;;;9.80;100.00;101941.28;4982355;28;20072;-83
2023/10/15 10:46:56;;;;;;;2.95;0.70;;;;;;;9.84;100.00;101936.63;5015527;28;20135;-83
2023/10/15 10:49:40;;;;;;;2.33;0.60;;;;;;;9.81;100.00;101932.56;5017859;28;20045;-83
2023/10/15 10:52:14;;;;;;;5.72;1.00;;;;;;;9.90;100.00;101935.25;5029825;28;20033;-83
2023/10/15 10:54:40;;;;;;;2.50;0.93;;;;;;;9.95;100.00;101944.25;5015575;28;20040;-83
2023/10/15 10:57:09;;;;;;;1.95;0.70;;;;;;;9.82;100.00;101956.56;5033181;28;20491;-84
2023/10/15 10:59:41;;;;;;;1.15;0.73;;;;;;;9.84;100.00;101953.41;5037754;28;20533;-84
2023/10/15 11:02:11;;;;;;;1.65;1.27;;;;;;;10.07;100.00;101951.00;5030881;28;20035;-84
2023/10/15 11:04:38;;;;;;;3.45;1.20;;;;;;;9.94;100.00;101942.59;5034008;28;20111;-82
2023/10/15 11:07:03;;;;;;;1.85;0.75;;;;;;;9.81;100.00;101954.13;5035376;28;20043;-83
2023/10/15 11:09:29;;;;;;;1.02;0.75;;;;;;;9.76;100.00;101939.22;5016506;28;20087;-83
2023/10/15 11:11:56;;;;;;;3.40;1.00;;;;;;;9.42;100.00;101943.16;5017569;28;20029;-84
2023/10/15 11:14:26;;;;;;;1.48;0.70;;;;;;;9.41;100.00;101937.94;5037039;28;20116;-83
2023/10/15 11:16:54;;;;;;;1.90;0.80;;;;;;;9.36;100.00;101947.38;5036570;28;20475;-83
2023/10/15 11:19:22;;;;;;;3.42;0.70;;;;;;;9.26;100.00;101940.22;5036931;28;20114;-84
2023/10/15 11:21:49;;;;;;;1.90;0.57;;;;;;;9.53;100.00;101947.19;5039013;28;20493;-83
2023/10/15 11:24:15;;;;;;;3.10;0.68;;;;;;;9.53;100.00;101949.97;5022763;28;20127;-83
2023/10/15 11:26:42;;;;;;;2.55;1.30;;;;;;;9.56;100.00;101954.06;5015763;28;20025;-83
2023/10/15 11:29:12;;;;;;;1.55;0.70;;;;;;;9.59;100.00;101958.13;5020643;28;20023;-83
2023/10/15 11:31:42;;;;;;;2.33;0.80;;;;;;;9.71;100.00;101956.19;5036255;28;20024;-83
2023/10/15 11:34:10;;;;;;;1.77;1.10;;;;;;;9.54;100.00;101951.59;5018091;28;20121;-83
2023/10/15 11:36:43;;;;;;;3.40;0.77;;;;;;;9.61;100.00;101967.00;5040245;28;20035;-83
2023/10/15 11:39:17;;;;;;;2.22;0.60;;;;;;;9.63;100.00;101961.88;5015767;28;20044;-83
2023/10/15 11:41:49;;;;;;;1.60;0.55;;;;;;;9.80;100.00;101972.84;5034138;28;20064;-83
2023/10/15 11:44:15;;;;;;;4.72;0.70;;;;;;;9.65;100.00;101965.16;5015552;28;20219;-84